Time;durP1;ratioP1;P1;durP2;ratioP2;P2;SDS_P1;SDS_P2;PMS_P1;PMS_P2;Temp;Humidity;BMP_temperature;BMP_pressure;BME280_temperature;BME280_humidity;BME280_pressure;Samples;Min_cycle;Max_cycle;Signal;HPM_P1;HPM_P2
2021/05/24 00:02:01;;;;;;;5.87;3.42;;;;;;;16.13;45.83;99683.26;1738609;81;21075;-64
2021/05/24 00:04:28;;;;;;;8.43;3.85;;;;;;;16.14;46.22;99694.55;1748285;81;21100;-64
2021/05/24 00:09:10;;;;;;;4.83;3.72;;;;;;;16.18;46.72;99704.19;1818195;77;23358;-58
2021/05/24 00:11:39;;;;;;;7.05;4.10;;;;;;;16.11;46.97;99702.92;1781969;80;21461;-56
2021/05/24 00:14:07;;;;;;;5.75;4.15;;;;;;;16.07;47.28;99713.64;1777712;79;21162;-56
2021/05/24 00:16:35;;;;;;;6.33;4.17;;;;;;;16.03;47.59;99718.92;1777078;80;20994;-56
2021/05/24 00:19:01;;;;;;;6.67;4.03;;;;;;;16.00;47.88;99719.66;1784236;80;20970;-57
2021/05/24 00:21:30;;;;;;;5.25;3.80;;;;;;;15.95;48.18;99726.80;1769836;80;20974;-56
2021/05/24 00:23:57;;;;;;;6.30;4.10;;;;;;;15.92;48.34;99733.80;1783181;79;20946;-58
2021/05/24 00:26:26;;;;;;;6.72;3.52;;;;;;;15.90;48.61;99738.50;1781249;80;20958;-56
2021/05/24 00:28:53;;;;;;;7.10;3.95;;;;;;;15.87;49.05;99744.14;1781254;79;20966;-56
2021/05/24 00:31:22;;;;;;;7.92;3.87;;;;;;;15.85;49.64;99750.20;1774765;79;20891;-55
2021/05/24 00:33:49;;;;;;;7.00;3.90;;;;;;;15.82;49.88;99750.41;1785582;79;20998;-55
2021/05/24 00:36:16;;;;;;;8.90;4.08;;;;;;;15.79;50.07;99753.36;1778178;79;20923;-56
2021/05/24 00:38:43;;;;;;;8.45;4.83;;;;;;;15.80;50.24;99755.09;1771360;79;21053;-58
2021/05/24 00:41:10;;;;;;;6.55;4.17;;;;;;;15.79;50.31;99752.00;1700253;82;21396;-59
2021/05/24 00:43:38;;;;;;;8.85;4.60;;;;;;;15.80;50.24;99752.38;1741287;81;20930;-59
2021/05/24 00:46:04;;;;;;;12.25;4.08;;;;;;;15.81;49.98;99759.55;1725420;82;21045;-60
2021/05/24 00:48:31;;;;;;;11.60;4.55;;;;;;;15.84;49.56;99767.50;1717177;82;21662;-59
2021/05/24 00:50:59;;;;;;;8.90;4.17;;;;;;;15.87;49.64;99766.80;1723185;82;21035;-59
2021/05/24 00:53:25;;;;;;;8.35;3.80;;;;;;;15.90;49.64;99770.64;1728695;82;20980;-59
2021/05/24 00:55:52;;;;;;;4.55;3.37;;;;;;;15.93;49.17;99779.09;1713294;82;21437;-58
2021/05/24 00:58:19;;;;;;;6.92;3.50;;;;;;;15.96;49.10;99775.63;1719608;82;21020;-59
2021/05/24 01:00:48;;;;;;;4.95;2.83;;;;;;;15.99;49.26;99782.72;1711754;82;21015;-60
2021/05/24 01:03:15;;;;;;;5.12;2.95;;;;;;;16.00;49.76;99793.97;1721119;82;21743;-59
2021/05/24 01:05:43;;;;;;;5.40;3.22;;;;;;;16.01;50.17;99803.87;1720429;82;20985;-59
2021/05/24 01:08:12;;;;;;;5.97;3.40;;;;;;;15.99;51.32;99804.48;1719296;82;20926;-59
2021/05/24 01:10:39;;;;;;;8.55;3.30;;;;;;;15.94;52.21;99799.37;1706868;82;21528;-59
2021/05/24 01:13:07;;;;;;;6.37;2.65;;;;;;;15.91;53.51;99806.87;1711026;83;21001;-59
2021/05/24 01:15:35;;;;;;;6.62;2.77;;;;;;;15.84;54.31;99800.13;1711775;82;20991;-59
2021/05/24 01:18:02;;;;;;;7.62;2.70;;;;;;;15.79;54.92;99813.19;1763332;80;20954;-59
2021/05/24 01:20:29;;;;;;;5.50;2.98;;;;;;;15.76;55.62;99810.67;1766231;80;21615;-58
2021/05/24 01:23:07;;;;;;;4.97;2.65;;;;;;;15.69;57.13;99804.80;1773684;80;20964;-59
2021/05/24 01:25:26;;;;;;;6.53;2.92;;;;;;;15.63;59.06;99809.31;1764665;80;21601;-58
2021/05/24 01:27:53;;;;;;;5.20;2.55;;;;;;;15.56;60.18;99808.86;1772458;80;21061;-58
2021/05/24 01:30:20;;;;;;;5.30;2.80;;;;;;;15.50;60.86;99810.64;1769287;80;21387;-59
2021/05/24 01:32:49;;;;;;;5.50;2.92;;;;;;;15.48;61.76;99819.38;1764495;80;21455;-58
2021/05/24 01:35:16;;;;;;;7.47;3.05;;;;;;;15.44;63.11;99811.05;1763538;79;20931;-56
2021/05/24 01:37:43;;;;;;;4.67;3.10;;;;;;;15.39;65.16;99815.92;1765433;80;20963;-57
2021/05/24 01:40:10;;;;;;;7.35;3.10;;;;;;;15.30;65.61;99817.45;1761361;80;21099;-59
2021/05/24 01:42:37;;;;;;;5.95;2.98;;;;;;;15.24;66.83;99820.59;1766835;80;20962;-60
2021/05/24 01:45:06;;;;;;;5.30;3.10;;;;;;;15.18;67.75;99821.88;1768591;80;21507;-59
2021/05/24 01:47:33;;;;;;;6.95;3.62;;;;;;;15.11;68.60;99817.82;1769208;80;20994;-59
2021/05/24 01:50:00;;;;;;;7.33;3.20;;;;;;;15.04;69.55;99820.58;1764667;80;20950;-59
2021/05/24 01:52:27;;;;;;;6.78;3.40;;;;;;;14.99;70.51;99820.02;1769598;80;21083;-59
2021/05/24 01:54:54;;;;;;;6.08;3.35;;;;;;;14.92;70.93;99822.77;1770775;80;21332;-57
2021/05/24 01:57:21;;;;;;;6.97;4.03;;;;;;;14.86;72.58;99825.87;1762307;80;20923;-58
2021/05/24 01:59:48;;;;;;;5.53;3.42;;;;;;;14.78;73.73;99829.11;1767967;80;21521;-58
2021/05/24 02:02:16;;;;;;;6.10;3.30;;;;;;;14.71;75.43;99829.14;1768884;80;21055;-58
2021/05/24 02:04:42;;;;;;;6.37;3.47;;;;;;;14.64;76.95;99830.02;1767336;80;21447;-56
2021/05/24 02:07:10;;;;;;;6.60;3.52;;;;;;;14.60;76.99;99831.20;1764570;80;20946;-55
2021/05/24 02:09:38;;;;;;;9.68;3.42;;;;;;;14.58;77.52;99833.63;1766814;79;20911;-58
2021/05/24 02:12:07;;;;;;;10.13;3.47;;;;;;;14.55;78.58;99833.35;1776882;80;21418;-56
2021/05/24 02:14:35;;;;;;;6.72;3.52;;;;;;;14.52;79.99;99837.61;1781312;79;20895;-55
2021/05/24 02:17:04;;;;;;;5.72;3.30;;;;;;;14.48;80.41;99836.55;1771853;80;21006;-59
2021/05/24 02:19:31;;;;;;;5.83;3.92;;;;;;;14.41;80.46;99846.91;1775775;80;20970;-60
2021/05/24 02:22:00;;;;;;;9.25;4.22;;;;;;;14.33;80.93;99845.19;1777030;80;20977;-62
2021/05/24 02:24:27;;;;;;;6.97;4.22;;;;;;;14.29;81.46;99851.77;1779081;80;21061;-61
2021/05/24 02:26:53;;;;;;;8.03;5.30;;;;;;;14.25;82.08;99848.86;1773808;80;21493;-58
2021/05/24 02:29:20;;;;;;;11.22;5.50;;;;;;;14.24;82.99;99852.55;1785051;80;21014;-57
2021/05/24 02:31:48;;;;;;;7.47;4.67;;;;;;;14.19;84.01;99854.68;1771673;80;20926;-57
2021/05/24 02:34:15;;;;;;;9.63;4.95;;;;;;;14.14;84.87;99862.61;1774025;80;20907;-58
2021/05/24 02:36:42;;;;;;;10.05;5.03;;;;;;;14.09;85.59;99861.16;1774287;80;21071;-59
2021/05/24 02:39:09;;;;;;;15.55;4.62;;;;;;;14.02;85.78;99871.53;1775882;80;21415;-58
2021/05/24 02:41:37;;;;;;;13.32;5.37;;;;;;;13.97;86.58;99872.30;1767499;80;21064;-58
2021/05/24 02:44:05;;;;;;;13.55;5.40;;;;;;;13.92;86.70;99869.00;1776389;80;21077;-58
2021/05/24 02:46:33;;;;;;;10.80;6.00;;;;;;;13.87;87.06;99862.99;1768539;80;20974;-57
2021/05/24 02:49:00;;;;;;;17.45;6.50;;;;;;;13.83;88.11;99871.79;1768198;80;21527;-57
2021/05/24 02:51:27;;;;;;;11.30;6.60;;;;;;;13.77;88.74;99878.95;1771747;80;21391;-58
2021/05/24 02:53:54;;;;;;;10.28;5.30;;;;;;;13.74;89.34;99878.25;1776178;80;21065;-65
2021/05/24 02:56:21;;;;;;;11.68;5.42;;;;;;;13.67;89.49;99878.25;1758250;80;20962;-64
2021/05/24 02:58:48;;;;;;;8.75;6.20;;;;;;;13.65;90.53;99882.91;1783245;80;20936;-65
2021/05/24 03:01:15;;;;;;;8.33;6.05;;;;;;;13.61;90.96;99887.14;1772098;80;20961;-66
2021/05/24 03:03:42;;;;;;;11.48;6.87;;;;;;;13.51;91.86;99890.02;1774916;80;20950;-65
2021/05/24 03:06:09;;;;;;;9.78;6.58;;;;;;;13.43;92.31;99891.45;1773683;80;21047;-65
2021/05/24 03:08:36;;;;;;;12.18;7.15;;;;;;;13.35;93.52;99897.31;1773124;80;20955;-65
2021/05/24 03:11:03;;;;;;;10.50;6.45;;;;;;;13.25;94.06;99897.46;1771292;80;21411;-64
2021/05/24 03:13:30;;;;;;;11.03;6.90;;;;;;;13.14;94.15;99897.19;1774400;80;20955;-65
2021/05/24 03:15:57;;;;;;;13.25;7.15;;;;;;;13.02;94.60;99899.66;1768131;80;20887;-65
2021/05/24 03:18:24;;;;;;;8.03;4.85;;;;;;;12.96;95.02;99895.95;1762483;80;21594;-57
2021/05/24 03:20:51;;;;;;;11.55;6.55;;;;;;;12.92;94.72;99894.86;1772657;80;20950;-57
2021/05/24 03:23:18;;;;;;;8.23;5.65;;;;;;;12.88;94.83;99891.45;1767460;80;20915;-57
2021/05/24 03:25:45;;;;;;;18.77;6.87;;;;;;;12.84;95.30;99898.02;1767922;80;21059;-57
2021/05/24 03:28:12;;;;;;;11.08;6.42;;;;;;;12.78;96.14;99886.16;1761242;80;21041;-56
2021/05/24 03:30:39;;;;;;;13.72;6.72;;;;;;;12.69;96.87;99896.19;1772092;80;21077;-55
2021/05/24 03:33:06;;;;;;;8.65;6.17;;;;;;;12.59;97.39;99896.69;1760259;80;21419;-55
2021/05/24 03:35:33;;;;;;;13.32;6.92;;;;;;;12.53;98.19;99897.53;1764272;80;20936;-57
2021/05/24 03:38:00;;;;;;;8.78;5.97;;;;;;;12.43;99.02;99894.45;1770415;80;21555;-55
2021/05/24 03:40:27;;;;;;;7.60;6.42;;;;;;;12.35;99.89;99896.70;1767444;80;20943;-55
2021/05/24 03:42:54;;;;;;;21.07;7.05;;;;;;;12.23;100.00;99894.67;1767807;80;21613;-55
2021/05/24 03:45:23;;;;;;;8.85;6.72;;;;;;;12.16;100.00;99900.03;1763633;80;21024;-55
2021/05/24 03:47:50;;;;;;;8.70;6.00;;;;;;;12.10;100.00;99897.67;1761564;80;20978;-55
2021/05/24 03:50:17;;;;;;;9.98;7.97;;;;;;;12.03;100.00;99892.56;1770717;80;20891;-54
2021/05/24 03:52:44;;;;;;;10.90;7.05;;;;;;;12.00;100.00;99897.28;1770358;80;21004;-54
2021/05/24 03:55:13;;;;;;;8.50;5.85;;;;;;;11.94;100.00;99897.62;1765068;80;21067;-54
2021/05/24 03:57:41;;;;;;;10.13;6.47;;;;;;;11.86;100.00;99903.41;1768680;80;20947;-55
2021/05/24 04:00:09;;;;;;;8.13;6.97;;;;;;;11.84;100.00;99905.34;1773603;80;21005;-55
2021/05/24 04:02:42;;;;;;;14.03;9.13;;;;;;;11.80;100.00;99903.71;1764877;80;21009;-55
2021/05/24 04:07:48;;;;;;;11.70;8.20;;;;;;;11.71;100.00;99906.89;1760548;80;21091;-55
2021/05/24 04:10:13;;;;;;;13.13;7.72;;;;;;;11.71;100.00;99906.89;1728900;80;21481;-53
2021/05/24 04:12:41;;;;;;;8.38;7.30;;;;;;;11.68;100.00;99915.17;1697860;83;21458;-54
2021/05/24 04:15:09;;;;;;;12.90;7.97;;;;;;;11.66;100.00;99915.70;1710630;82;21519;-55
2021/05/24 04:17:37;;;;;;;12.23;8.15;;;;;;;11.65;100.00;99916.67;1767846;80;20915;-53
2021/05/24 04:20:07;;;;;;;13.90;9.03;;;;;;;11.62;100.00;99916.36;1767648;80;20979;-52
2021/05/24 04:22:35;;;;;;;13.08;9.20;;;;;;;11.60;100.00;99926.84;1772980;80;21578;-54
2021/05/24 04:25:03;;;;;;;14.20;8.80;;;;;;;11.57;100.00;99920.26;1759809;80;20958;-55
2021/05/24 04:27:31;;;;;;;12.00;8.18;;;;;;;11.57;100.00;99920.26;1762591;80;21538;-54
2021/05/24 04:29:58;;;;;;;12.93;8.45;;;;;;;11.57;100.00;99928.36;1764381;80;20931;-54
2021/05/24 04:32:25;;;;;;;12.45;7.35;;;;;;;11.57;100.00;99927.02;1758600;80;21487;-53
2021/05/24 04:34:52;;;;;;;8.78;7.15;;;;;;;11.53;100.00;99931.20;1769401;80;21363;-56
2021/05/24 04:37:19;;;;;;;10.43;7.10;;;;;;;11.53;100.00;99931.20;1768565;79;21851;-56
2021/05/24 04:39:47;;;;;;;11.50;8.43;;;;;;;11.55;100.00;99933.82;1761879;79;20998;-55
2021/05/24 04:42:15;;;;;;;13.65;7.87;;;;;;;11.59;100.00;99934.55;1762366;79;21630;-53
2021/05/24 04:44:42;;;;;;;12.30;9.50;;;;;;;11.61;100.00;99933.98;1764936;79;21013;-54
2021/05/24 04:47:10;;;;;;;11.90;8.63;;;;;;;11.61;100.00;99929.92;1768753;80;20954;-54
2021/05/24 04:49:39;;;;;;;13.13;8.03;;;;;;;11.63;100.00;99940.20;1764248;79;20919;-56
2021/05/24 04:52:06;;;;;;;9.33;7.45;;;;;;;11.63;100.00;99944.25;1764391;80;20962;-51
2021/05/24 04:54:33;;;;;;;12.98;8.45;;;;;;;11.60;100.00;99943.91;1758140;79;20978;-51
2021/05/24 04:57:00;;;;;;;12.37;8.48;;;;;;;11.58;100.00;99945.83;1761817;80;21125;-53
2021/05/24 04:59:27;;;;;;;12.55;9.53;;;;;;;11.61;100.00;99951.53;1760160;79;22334;-55
2021/05/24 05:01:53;;;;;;;14.75;9.10;;;;;;;11.61;100.00;99951.09;1769374;80;20922;-54
2021/05/24 05:04:20;;;;;;;9.85;8.88;;;;;;;11.61;100.00;99951.53;1765125;80;21002;-53
2021/05/24 05:06:47;;;;;;;12.15;8.38;;;;;;;11.61;100.00;99951.53;1762727;79;20918;-54
2021/05/24 05:09:14;;;;;;;26.82;9.85;;;;;;;11.57;100.00;99960.77;1769390;79;21034;-55
2021/05/24 05:11:41;;;;;;;10.65;8.30;;;;;;;11.57;100.00;99960.77;1770163;79;21029;-55
2021/05/24 05:14:08;;;;;;;12.73;10.18;;;;;;;11.54;100.00;99961.31;1765977;80;20974;-56
2021/05/24 05:16:36;;;;;;;11.20;8.58;;;;;;;11.54;100.00;99961.31;1775400;79;21640;-56
2021/05/24 05:19:03;;;;;;;11.65;9.23;;;;;;;11.54;100.00;99957.26;1768069;80;20922;-66
2021/05/24 05:21:32;;;;;;;14.93;8.78;;;;;;;11.53;100.00;99962.27;1773022;79;21518;-55
2021/05/24 05:23:59;;;;;;;13.03;8.68;;;;;;;11.53;100.00;99970.37;1769440;80;20931;-56
2021/05/24 05:26:26;;;;;;;9.78;7.90;;;;;;;11.53;100.00;99979.83;1766890;80;21011;-57
2021/05/24 05:28:53;;;;;;;12.23;8.00;;;;;;;11.50;100.00;99974.59;1762783;79;21038;-55
2021/05/24 05:31:20;;;;;;;11.33;8.28;;;;;;;11.50;100.00;99982.70;1769671;78;20923;-56
2021/05/24 05:33:47;;;;;;;12.47;9.28;;;;;;;11.50;100.00;99982.70;1763350;78;21069;-56
2021/05/24 05:36:14;;;;;;;11.08;8.75;;;;;;;11.50;100.00;99989.45;1772894;78;21351;-55
2021/05/24 05:38:40;;;;;;;11.88;7.87;;;;;;;11.50;100.00;99996.20;1768091;78;21066;-55
2021/05/24 05:41:07;;;;;;;9.33;6.75;;;;;;;11.49;100.00;99998.48;1774963;78;20934;-55
2021/05/24 05:43:34;;;;;;;10.20;6.72;;;;;;;11.52;100.00;100004.22;1768174;78;20958;-56
2021/05/24 05:46:01;;;;;;;11.80;6.75;;;;;;;11.54;100.00;100005.00;1763775;80;21590;-54
2021/05/24 05:48:28;;;;;;;11.43;6.70;;;;;;;11.55;100.00;100010.32;1765557;79;20951;-55
2021/05/24 05:50:55;;;;;;;11.65;7.10;;;;;;;11.57;100.00;100014.80;1773997;80;20898;-55
2021/05/24 05:53:22;;;;;;;8.23;7.35;;;;;;;11.57;100.00;100013.45;1771823;78;20965;-56
2021/05/24 05:55:49;;;;;;;9.70;6.53;;;;;;;11.58;100.00;100017.89;1764729;80;21359;-55
2021/05/24 05:58:16;;;;;;;9.45;6.08;;;;;;;11.56;100.00;100023.38;1716472;82;21081;-55
2021/05/24 06:00:43;;;;;;;7.55;6.25;;;;;;;11.57;100.00;100014.80;1717828;81;20984;-57
2021/05/24 06:03:11;;;;;;;7.65;5.60;;;;;;;11.58;100.00;100016.55;1701668;83;20982;-54
2021/05/24 06:05:38;;;;;;;7.03;5.33;;;;;;;11.61;100.00;100023.13;1716210;81;20944;-55
2021/05/24 06:08:06;;;;;;;6.70;4.90;;;;;;;11.63;100.00;100036.09;1727132;81;20950;-54
2021/05/24 06:10:33;;;;;;;4.58;4.00;;;;;;;11.61;100.00;100037.53;1710749;82;21600;-57
2021/05/24 06:13:00;;;;;;;4.25;3.77;;;;;;;11.55;100.00;100035.98;1724283;82;20994;-54
2021/05/24 06:15:27;;;;;;;6.60;4.58;;;;;;;11.49;100.00;100034.94;1766557;79;20983;-55
2021/05/24 06:17:54;;;;;;;5.15;4.65;;;;;;;11.46;100.00;100043.22;1760824;80;21464;-55
2021/05/24 06:20:21;;;;;;;9.45;4.10;;;;;;;11.49;100.00;100040.82;1767957;80;20935;-54
2021/05/24 06:22:48;;;;;;;4.95;2.77;;;;;;;11.46;100.00;100051.31;1761560;80;21721;-54
2021/05/24 06:25:14;;;;;;;3.80;3.20;;;;;;;11.41;100.00;100038.52;1767250;79;20963;-56
2021/05/24 06:27:42;;;;;;;4.80;3.30;;;;;;;11.38;100.00;100046.75;1764201;79;20970;-54
2021/05/24 06:30:10;;;;;;;11.00;4.55;;;;;;;11.40;100.00;100046.66;1764113;79;21029;-55
2021/05/24 06:32:37;;;;;;;5.37;3.30;;;;;;;11.40;100.00;100048.92;1763482;79;21016;-54
2021/05/24 06:35:05;;;;;;;5.37;3.55;;;;;;;11.40;100.00;100050.72;1767654;80;21637;-56
2021/05/24 06:37:32;;;;;;;4.25;3.22;;;;;;;11.34;100.00;100064.05;1764485;80;21009;-54
2021/05/24 06:39:59;;;;;;;3.30;2.87;;;;;;;11.34;100.00;100064.05;1767144;80;21078;-54
2021/05/24 06:42:27;;;;;;;5.30;2.60;;;;;;;11.36;100.00;100071.62;1763884;79;21030;-54
2021/05/24 06:44:53;;;;;;;4.35;2.90;;;;;;;11.34;100.00;100073.50;1762414;80;20915;-55
2021/05/24 06:47:22;;;;;;;4.53;2.37;;;;;;;11.31;100.00;100072.31;1762924;79;21116;-55
2021/05/24 06:49:51;;;;;;;3.62;2.52;;;;;;;11.32;100.00;100079.94;1765031;80;20934;-55
2021/05/24 06:52:18;;;;;;;3.58;2.40;;;;;;;11.33;100.00;100087.95;1765394;79;21071;-54
2021/05/24 06:54:45;;;;;;;3.75;2.30;;;;;;;11.34;100.00;100081.59;1763183;80;20966;-56
2021/05/24 06:57:12;;;;;;;2.83;2.52;;;;;;;11.31;100.00;100087.16;1765873;80;20946;-58
2021/05/24 06:59:39;;;;;;;3.00;2.45;;;;;;;11.36;100.00;100105.84;1772213;80;21054;-57
2021/05/24 07:02:07;;;;;;;4.58;2.20;;;;;;;11.38;100.00;100099.41;1763170;79;20923;-57
2021/05/24 07:04:34;;;;;;;3.80;2.75;;;;;;;11.40;100.00;100102.94;1767413;79;20923;-56
2021/05/24 07:07:02;;;;;;;2.85;2.27;;;;;;;11.44;100.00;100108.56;1725620;80;21610;-54
2021/05/24 07:09:29;;;;;;;5.33;2.40;;;;;;;11.47;100.00;100114.31;1764627;79;20938;-55
2021/05/24 07:11:56;;;;;;;5.00;2.60;;;;;;;11.47;100.00;100114.31;1777324;78;21245;-56
2021/05/24 07:14:23;;;;;;;2.70;2.50;;;;;;;11.49;100.00;100118.67;1774571;80;20914;-55
2021/05/24 07:16:50;;;;;;;2.92;2.52;;;;;;;11.53;100.00;100112.17;1773560;80;20934;-56
2021/05/24 07:19:18;;;;;;;3.67;2.92;;;;;;;11.56;100.00;100124.68;1770662;79;21428;-57
2021/05/24 07:21:45;;;;;;;3.17;2.87;;;;;;;11.61;100.00;100114.97;1777102;79;20923;-57
2021/05/24 07:24:12;;;;;;;3.83;2.90;;;;;;;11.65;100.00;100121.98;1778978;78;21055;-53
2021/05/24 07:26:39;;;;;;;4.00;3.17;;;;;;;11.65;100.00;100128.26;1773308;80;21909;-54
2021/05/24 07:29:06;;;;;;;5.10;3.08;;;;;;;11.67;100.00;100134.96;1769245;80;20997;-54
2021/05/24 07:31:33;;;;;;;4.22;3.25;;;;;;;11.66;100.00;100127.78;1771524;79;20966;-55
2021/05/24 07:34:00;;;;;;;6.00;3.33;;;;;;;11.69;100.00;100126.30;1774417;80;20934;-54
2021/05/24 07:36:29;;;;;;;4.83;2.70;;;;;;;11.74;100.00;100134.58;1775079;80;21039;-53
2021/05/24 07:38:55;;;;;;;7.37;2.60;;;;;;;11.74;100.00;100134.58;1771561;80;20990;-52
2021/05/24 07:41:22;;;;;;;4.83;3.30;;;;;;;11.75;100.00;100139.50;1770153;80;20986;-54
2021/05/24 07:43:49;;;;;;;4.17;3.40;;;;;;;11.75;100.00;100135.45;1778008;80;20934;-54
2021/05/24 07:46:17;;;;;;;5.55;3.62;;;;;;;11.76;100.00;100130.44;1775814;80;20938;-54
2021/05/24 07:48:44;;;;;;;6.45;2.77;;;;;;;11.81;100.00;100127.03;1780760;80;21066;-55
2021/05/24 07:51:11;;;;;;;4.37;2.67;;;;;;;11.83;100.00;100149.51;1773774;79;20883;-56
2021/05/24 07:53:38;;;;;;;3.87;3.37;;;;;;;11.87;100.00;100134.88;1773762;80;21034;-57
2021/05/24 07:56:05;;;;;;;4.95;3.83;;;;;;;11.93;100.00;100141.80;1768150;80;21368;-55
2021/05/24 07:58:32;;;;;;;4.58;3.40;;;;;;;11.97;100.00;100137.52;1769130;80;20962;-56
2021/05/24 08:00:59;;;;;;;6.08;4.05;;;;;;;12.04;100.00;100151.15;1775622;80;21773;-55
2021/05/24 08:03:26;;;;;;;3.85;2.95;;;;;;;12.09;100.00;100144.61;1771221;80;21402;-55
2021/05/24 08:05:53;;;;;;;4.12;3.72;;;;;;;12.14;100.00;100142.08;1774511;80;21083;-55
2021/05/24 08:08:20;;;;;;;5.08;3.47;;;;;;;12.19;100.00;100143.20;1771183;80;21006;-56
2021/05/24 08:10:47;;;;;;;3.47;3.17;;;;;;;12.27;100.00;100147.27;1770728;79;20974;-56
2021/05/24 08:13:14;;;;;;;3.67;2.72;;;;;;;12.33;100.00;100167.24;1774871;80;21053;-57
2021/05/24 08:15:42;;;;;;;5.47;3.22;;;;;;;12.33;100.00;100146.09;1768077;78;20930;-54
2021/05/24 08:18:09;;;;;;;4.05;2.95;;;;;;;12.36;100.00;100143.23;1768637;78;21516;-56
2021/05/24 08:20:37;;;;;;;7.37;3.10;;;;;;;12.40;100.00;100155.63;1773511;80;21025;-56
2021/05/24 08:23:04;;;;;;;6.03;2.83;;;;;;;12.46;100.00;100162.55;1767838;78;20942;-56
2021/05/24 08:25:32;;;;;;;4.15;2.98;;;;;;;12.49;100.00;100171.39;1778705;78;21011;-56
2021/05/24 08:27:59;;;;;;;4.03;2.83;;;;;;;12.51;100.00;100181.64;1773952;80;20958;-57
2021/05/24 08:30:26;;;;;;;4.28;2.58;;;;;;;12.56;100.00;100176.88;1772882;80;20975;-55
2021/05/24 08:32:53;;;;;;;3.87;3.30;;;;;;;12.66;100.00;100169.64;1775355;78;21055;-56
2021/05/24 08:35:20;;;;;;;3.47;3.17;;;;;;;12.74;100.00;100174.19;1773572;80;20958;-53
2021/05/24 08:37:48;;;;;;;5.85;2.80;;;;;;;12.83;100.00;100177.74;1766791;80;21040;-55
2021/05/24 08:40:15;;;;;;;4.15;3.08;;;;;;;12.89;100.00;100172.48;1770710;79;21431;-53
2021/05/24 08:42:44;;;;;;;2.72;2.35;;;;;;;12.94;100.00;100179.88;1779745;80;20962;-54
2021/05/24 08:45:12;;;;;;;2.87;2.20;;;;;;;12.99;100.00;100173.27;1739613;80;20990;-55
2021/05/24 08:47:39;;;;;;;3.45;1.85;;;;;;;13.08;100.00;100185.45;1766474;78;20993;-53
2021/05/24 08:50:06;;;;;;;2.80;2.12;;;;;;;13.13;100.00;100177.08;1777764;80;21042;-55
2021/05/24 08:52:33;;;;;;;1.67;1.57;;;;;;;13.18;100.00;100192.13;1771662;78;21009;-53
2021/05/24 08:55:00;;;;;;;3.98;1.95;;;;;;;13.23;99.61;100197.33;1770661;78;21901;-54
2021/05/24 08:57:27;;;;;;;3.40;2.45;;;;;;;13.28;98.62;100195.25;1781295;78;20946;-55
2021/05/24 08:59:54;;;;;;;1.80;1.30;;;;;;;13.36;98.93;100201.11;1774901;80;20946;-56
2021/05/24 09:02:21;;;;;;;2.37;1.82;;;;;;;13.42;97.21;100216.16;1779319;78;21066;-55
2021/05/24 09:04:49;;;;;;;2.72;2.10;;;;;;;13.47;97.87;100208.16;1777296;80;21721;-55
2021/05/24 09:07:17;;;;;;;4.85;2.40;;;;;;;13.57;98.23;100197.22;1767503;80;20966;-59
2021/05/24 09:10:04;;;;;;;3.58;2.12;;;;;;;13.67;98.33;100198.07;1774522;80;21049;-59
2021/05/24 09:12:32;;;;;;;1.90;1.62;;;;;;;13.76;98.37;100207.92;1770763;78;20934;-60
2021/05/24 09:15:04;;;;;;;2.58;1.92;;;;;;;13.84;96.31;100212.41;1771580;80;20977;-59
2021/05/24 09:17:53;;;;;;;2.30;2.00;;;;;;;13.87;94.72;100215.45;1772530;80;20994;-61
2021/05/24 09:20:29;;;;;;;2.30;1.98;;;;;;;13.90;95.26;100212.55;1773235;80;21124;-58
2021/05/24 09:23:30;;;;;;;2.37;2.15;;;;;;;13.88;93.80;100215.36;1772425;80;20965;-58
2021/05/24 09:26:10;;;;;;;2.40;2.20;;;;;;;13.91;94.22;100211.61;1778083;80;21023;-58
2021/05/24 09:28:49;;;;;;;2.67;2.20;;;;;;;13.90;93.63;100228.81;1777828;78;21696;-59
2021/05/24 09:31:24;;;;;;;3.37;1.70;;;;;;;13.92;93.92;100229.63;1775353;80;21546;-55
2021/05/24 09:33:59;;;;;;;3.58;2.20;;;;;;;13.95;94.58;100230.79;1771265;80;20926;-58
2021/05/24 09:36:29;;;;;;;3.72;2.50;;;;;;;13.96;94.08;100244.77;1766063;78;20986;-59
2021/05/24 09:39:04;;;;;;;5.08;2.22;;;;;;;13.98;93.47;100246.03;1772851;80;20961;-59
2021/05/24 09:41:45;;;;;;;3.50;1.98;;;;;;;14.04;93.63;100230.28;1771847;80;21145;-58
2021/05/24 09:44:22;;;;;;;1.75;1.40;;;;;;;14.13;93.22;100239.73;1775028;78;20943;-58
2021/05/24 09:46:54;;;;;;;3.70;1.67;;;;;;;14.15;90.35;100237.31;1771915;78;21013;-58
2021/05/24 09:49:26;;;;;;;2.00;1.80;;;;;;;14.18;87.98;100238.13;1743265;80;20994;-60
2021/05/24 09:51:53;;;;;;;2.02;1.55;;;;;;;14.22;88.30;100241.94;1771806;80;20934;-59
2021/05/24 09:54:22;;;;;;;3.95;1.67;;;;;;;14.23;86.04;100249.11;1779344;80;21056;-58
2021/05/24 09:56:50;;;;;;;5.17;1.90;;;;;;;14.28;84.99;100235.28;1770197;80;20997;-58
2021/05/24 09:59:25;;;;;;;3.25;2.20;;;;;;;14.38;84.37;100226.97;1772404;80;21656;-57
2021/05/24 10:01:58;;;;;;;7.10;1.50;;;;;;;14.50;84.64;100226.31;1771323;80;21413;-58
2021/05/24 10:04:29;;;;;;;3.98;1.87;;;;;;;14.61;82.74;100237.41;1777978;80;21295;-58
2021/05/24 10:07:03;;;;;;;1.95;1.30;;;;;;;14.70;82.58;100256.81;1768049;80;21597;-57
2021/05/24 10:09:32;;;;;;;5.67;1.62;;;;;;;14.78;80.23;100238.23;1774563;80;20923;-59
2021/05/24 10:12:02;;;;;;;2.60;1.52;;;;;;;14.86;79.92;100233.20;1769087;80;20902;-59
2021/05/24 10:14:29;;;;;;;2.08;1.42;;;;;;;14.90;79.31;100229.34;1779021;80;21058;-58
2021/05/24 10:17:01;;;;;;;2.72;1.55;;;;;;;15.00;79.20;100240.53;1776359;80;20978;-59
2021/05/24 10:19:26;;;;;;;2.30;1.22;;;;;;;15.07;79.50;100230.54;1737505;81;21716;-59
2021/05/24 10:21:53;;;;;;;5.05;1.70;;;;;;;15.17;77.48;100224.94;1717239;82;20949;-58
2021/05/24 10:24:25;;;;;;;5.35;1.40;;;;;;;15.26;75.24;100225.35;1715066;82;21008;-58
2021/05/24 10:26:59;;;;;;;2.70;1.65;;;;;;;15.29;75.02;100236.91;1716597;82;20945;-58
2021/05/24 10:29:27;;;;;;;1.77;1.30;;;;;;;15.30;74.89;100221.48;1722367;82;21386;-57
2021/05/24 10:31:55;;;;;;;1.47;1.30;;;;;;;15.29;74.97;100240.12;1720078;82;21034;-56
2021/05/24 10:34:24;;;;;;;2.00;1.00;;;;;;;15.31;72.66;100229.53;1717932;82;21028;-58
2021/05/24 10:37:13;;;;;;;2.35;1.20;;;;;;;15.36;72.47;100225.17;1714059;82;20988;-56
2021/05/24 10:40:02;;;;;;;1.40;1.10;;;;;;;15.39;72.72;100229.03;1720044;82;21588;-57
2021/05/24 10:42:43;;;;;;;1.47;1.00;;;;;;;15.53;72.28;100239.93;1718899;81;20944;-57
2021/05/24 10:45:23;;;;;;;2.08;1.47;;;;;;;15.63;71.40;100232.11;1718093;82;21088;-57
2021/05/24 10:47:54;;;;;;;1.45;1.12;;;;;;;15.71;71.82;100230.66;1718168;82;21617;-57
2021/05/24 10:50:21;;;;;;;1.67;1.20;;;;;;;15.82;70.04;100243.57;1723235;82;20905;-57
2021/05/24 10:53:01;;;;;;;1.85;1.35;;;;;;;15.85;69.16;100238.41;1712579;82;20961;-60
2021/05/24 10:55:47;;;;;;;1.75;1.07;;;;;;;15.84;69.25;100236.66;1723495;82;20992;-57
2021/05/24 10:58:14;;;;;;;2.92;1.42;;;;;;;15.88;68.79;100228.70;1716345;82;21005;-57
2021/05/24 11:01:03;;;;;;;1.47;1.12;;;;;;;15.92;68.69;100232.94;1722437;82;20905;-57
2021/05/24 11:03:32;;;;;;;2.17;0.90;;;;;;;15.97;67.52;100237.11;1721825;82;20905;-59
2021/05/24 11:06:16;;;;;;;3.50;1.25;;;;;;;16.00;68.09;100237.41;1720154;82;20972;-56
2021/05/24 11:08:53;;;;;;;1.32;1.22;;;;;;;16.07;67.84;100242.83;1713126;82;20973;-57
2021/05/24 11:11:26;;;;;;;2.95;1.20;;;;;;;16.11;66.17;100255.27;1716668;82;20976;-60
2021/05/24 11:14:04;;;;;;;3.45;1.25;;;;;;;16.15;67.99;100251.39;1735554;81;20989;-58
2021/05/24 11:16:33;;;;;;;3.30;1.00;;;;;;;16.23;68.50;100262.62;1735454;81;20929;-57
2021/05/24 11:19:14;;;;;;;2.15;1.30;;;;;;;16.28;68.29;100258.73;1728514;81;20968;-58
2021/05/24 11:21:54;;;;;;;2.65;1.37;;;;;;;16.27;68.76;100246.11;1725036;81;21568;-56
2021/05/24 11:27:17;;;;;;;5.17;1.00;;;;;;;16.38;67.41;100270.77;1708520;82;21022;-56
2021/05/24 11:29:49;;;;;;;2.50;1.20;;;;;;;16.33;67.71;100243.84;1705631;82;20922;-57
2021/05/24 11:32:27;;;;;;;3.42;1.07;;;;;;;16.33;68.39;100234.81;1708641;82;21330;-59
2021/05/24 11:34:55;;;;;;;1.85;1.10;;;;;;;16.35;67.80;100262.80;1730290;81;20979;-57
2021/05/24 11:37:41;;;;;;;2.87;1.17;;;;;;;16.34;67.84;100254.25;1770563;79;21038;-57
2021/05/24 11:40:16;;;;;;;3.70;1.00;;;;;;;16.36;66.77;100253.67;1768814;80;21664;-57